Time;durP1;ratioP1;P1;durP2;ratioP2;P2;SDS_P1;SDS_P2;PMS_P1;PMS_P2;Temp;Humidity;BMP_temperature;BMP_pressure;BME280_temperature;BME280_humidity;BME280_pressure;Samples;Min_cycle;Max_cycle;Signal;HPM_P1;HPM_P2
2023/03/14 00:00:50;;;;;;;0.20;0.20;;;12.50;99.90;;;;;;5052578;28;20200;-62
2023/03/14 00:03:17;;;;;;;0.30;0.30;;;12.60;99.90;;;;;;5052786;28;20253;-62
2023/03/14 00:05:44;;;;;;;0.40;0.40;;;12.60;99.90;;;;;;5051389;28;20224;-63
2023/03/14 00:08:12;;;;;;;0.30;0.30;;;12.60;99.90;;;;;;5053613;28;20772;-62
2023/03/14 00:10:39;;;;;;;0.60;0.60;;;12.70;99.90;;;;;;5053266;28;20231;-61
2023/03/14 00:13:06;;;;;;;0.30;0.30;;;12.70;99.90;;;;;;5052743;28;20216;-63
2023/03/14 00:15:34;;;;;;;0.30;0.30;;;12.70;99.90;;;;;;5052171;28;20231;-63
2023/03/14 00:18:01;;;;;;;0.30;0.30;;;12.70;99.90;;;;;;5052986;28;20200;-63
2023/03/14 00:20:28;;;;;;;0.30;0.30;;;12.70;99.90;;;;;;5053037;28;20286;-62
2023/03/14 00:22:55;;;;;;;0.25;0.25;;;12.80;99.90;;;;;;5053111;28;20204;-62
2023/03/14 00:25:23;;;;;;;0.30;0.30;;;12.90;99.90;;;;;;5052139;28;20322;-63
2023/03/14 00:27:51;;;;;;;0.30;0.30;;;12.80;99.90;;;;;;5052615;28;20211;-62
2023/03/14 00:30:18;;;;;;;0.50;0.50;;;12.80;99.90;;;;;;5052642;28;20207;-64
2023/03/14 00:32:45;;;;;;;0.30;0.30;;;12.80;99.90;;;;;;5052717;28;20222;-62
2023/03/14 00:35:12;;;;;;;0.43;0.43;;;12.80;99.90;;;;;;5049819;28;20800;-62
2023/03/14 00:37:39;;;;;;;0.40;0.40;;;12.80;99.90;;;;;;5053007;28;20580;-62
2023/03/14 00:40:08;;;;;;;0.50;0.50;;;12.80;99.90;;;;;;5052276;28;20200;-63
2023/03/14 00:42:36;;;;;;;0.40;0.40;;;12.70;99.90;;;;;;5052714;28;20203;-62
2023/03/14 00:45:03;;;;;;;0.28;0.28;;;12.70;99.90;;;;;;5055498;28;20620;-62
2023/03/14 00:47:30;;;;;;;0.28;0.28;;;12.70;99.90;;;;;;5056862;28;20214;-62
2023/03/14 00:49:57;;;;;;;0.30;0.30;;;12.80;99.90;;;;;;5052786;28;20200;-61
2023/03/14 00:52:24;;;;;;;0.40;0.40;;;12.80;99.90;;;;;;5052243;28;20227;-62
2023/03/14 00:54:50;;;;;;;0.30;0.30;;;12.70;99.90;;;;;;5051563;28;20231;-63
2023/03/14 00:57:17;;;;;;;0.50;0.50;;;12.80;99.90;;;;;;5052245;28;20296;-63
2023/03/14 00:59:45;;;;;;;0.55;0.50;;;12.80;99.90;;;;;;5052225;28;20218;-63
2023/03/14 01:02:13;;;;;;;0.45;0.45;;;12.80;99.90;;;;;;5053034;28;20204;-62
2023/03/14 01:04:42;;;;;;;0.38;0.38;;;12.80;99.90;;;;;;5056334;28;20898;-62
2023/03/14 01:07:09;;;;;;;0.50;0.50;;;12.80;99.90;;;;;;5054180;28;20246;-62
2023/03/14 01:09:36;;;;;;;0.50;0.50;;;12.80;99.90;;;;;;5053439;28;20587;-62
2023/03/14 01:12:03;;;;;;;0.47;0.47;;;12.80;99.90;;;;;;5052299;28;20236;-62
2023/03/14 01:14:30;;;;;;;0.40;0.40;;;12.70;99.90;;;;;;5051617;28;20204;-62
2023/03/14 01:17:00;;;;;;;0.47;0.47;;;12.70;99.90;;;;;;5052364;28;20210;-61
2023/03/14 01:19:27;;;;;;;0.30;0.30;;;12.70;99.90;;;;;;5052195;28;20193;-63
2023/03/14 01:21:54;;;;;;;0.30;0.30;;;12.70;99.90;;;;;;5051825;28;20203;-62
2023/03/14 01:24:21;;;;;;;0.20;0.20;;;12.80;99.90;;;;;;5051210;28;20208;-63
2023/03/14 01:26:48;;;;;;;0.40;0.40;;;12.80;99.90;;;;;;5052264;28;20211;-63
2023/03/14 01:29:15;;;;;;;0.32;0.30;;;12.80;99.90;;;;;;5052090;28;20346;-62
2023/03/14 01:31:41;;;;;;;0.30;0.30;;;12.70;99.90;;;;;;5051000;28;20232;-64
2023/03/14 01:34:10;;;;;;;0.60;0.60;;;12.80;99.90;;;;;;5050840;28;20568;-63
2023/03/14 01:36:37;;;;;;;0.40;0.40;;;12.70;99.90;;;;;;5051457;28;20239;-62
2023/03/14 01:39:05;;;;;;;0.45;0.45;;;12.70;99.90;;;;;;5051754;28;20212;-62
2023/03/14 01:41:32;;;;;;;0.30;0.30;;;12.70;99.90;;;;;;5051020;28;20208;-63
2023/03/14 01:43:59;;;;;;;0.40;0.40;;;12.70;99.90;;;;;;5051025;28;20212;-63
2023/03/14 01:46:31;;;;;;;0.60;0.60;;;12.70;99.90;;;;;;5051201;28;20231;-61
2023/03/14 01:49:07;;;;;;;0.40;0.40;;;12.70;99.90;;;;;;5051154;28;20556;-62
2023/03/14 01:51:43;;;;;;;0.40;0.40;;;12.60;99.90;;;;;;5051060;28;20216;-64
2023/03/14 01:54:15;;;;;;;1.23;0.45;;;12.60;99.90;;;;;;5050033;28;20217;-62
2023/03/14 01:56:44;;;;;;;0.40;0.40;;;12.60;99.90;;;;;;5051018;28;20204;-60
2023/03/14 01:59:11;;;;;;;0.45;0.45;;;12.50;99.90;;;;;;5050912;28;20204;-63
2023/03/14 02:01:39;;;;;;;0.40;0.40;;;12.50;99.90;;;;;;5050753;28;20276;-61
2023/03/14 02:04:08;;;;;;;0.40;0.40;;;12.50;99.90;;;;;;5050051;28;20208;-62
2023/03/14 02:06:43;;;;;;;0.50;0.50;;;12.50;99.90;;;;;;5050589;28;20236;-62
2023/03/14 02:09:10;;;;;;;0.50;0.50;;;12.60;99.90;;;;;;5050908;28;20207;-62
2023/03/14 02:11:37;;;;;;;0.40;0.40;;;12.50;99.90;;;;;;5050489;28;20753;-63
2023/03/14 02:14:05;;;;;;;0.40;0.40;;;12.50;99.90;;;;;;5049643;28;20223;-61
2023/03/14 02:16:32;;;;;;;0.45;0.45;;;12.50;99.90;;;;;;5050451;28;20228;-63
2023/03/14 02:18:59;;;;;;;0.50;0.50;;;12.50;99.90;;;;;;5046002;28;20580;-62
2023/03/14 02:21:38;;;;;;;0.52;0.52;;;12.60;99.90;;;;;;5050356;28;20287;-61
2023/03/14 02:24:14;;;;;;;0.70;0.70;;;12.60;99.90;;;;;;5049798;28;20188;-62
2023/03/14 02:26:45;;;;;;;0.70;0.70;;;12.50;99.90;;;;;;5050781;28;20196;-62
2023/03/14 02:29:13;;;;;;;0.60;0.60;;;12.60;99.90;;;;;;5050707;28;20200;-63
2023/03/14 02:31:40;;;;;;;0.70;0.70;;;12.60;99.90;;;;;;5052012;28;20216;-61
2023/03/14 02:34:07;;;;;;;0.57;0.57;;;12.60;99.90;;;;;;5057614;28;20204;-61
2023/03/14 02:36:34;;;;;;;0.52;0.52;;;12.50;99.90;;;;;;5050641;28;20227;-62
2023/03/14 02:39:08;;;;;;;0.65;0.65;;;12.50;99.90;;;;;;5050366;28;20318;-61
2023/03/14 02:41:36;;;;;;;0.75;0.75;;;12.50;99.90;;;;;;5050423;28;20425;-62
2023/03/14 02:44:03;;;;;;;0.75;0.60;;;12.50;99.90;;;;;;5049115;28;20232;-62
2023/03/14 02:46:32;;;;;;;0.60;0.60;;;12.50;99.90;;;;;;5050518;28;20633;-62
2023/03/14 02:49:02;;;;;;;0.70;0.70;;;12.50;99.90;;;;;;5050279;28;20204;-61
2023/03/14 02:51:30;;;;;;;0.85;0.85;;;12.50;99.90;;;;;;5050623;28;20230;-63
2023/03/14 02:53:57;;;;;;;0.70;0.70;;;12.50;99.90;;;;;;5049500;28;20214;-61
2023/03/14 02:56:24;;;;;;;0.82;0.77;;;12.50;99.90;;;;;;5050361;28;20251;-61
2023/03/14 02:58:50;;;;;;;0.68;0.68;;;12.50;99.90;;;;;;5050223;28;20223;-62
2023/03/14 03:01:17;;;;;;;0.70;0.70;;;12.50;99.90;;;;;;5049589;28;20218;-62
2023/03/14 03:03:45;;;;;;;0.70;0.70;;;12.40;99.90;;;;;;5050151;28;20204;-62
2023/03/14 03:06:12;;;;;;;1.23;0.80;;;12.50;99.90;;;;;;5049777;28;20246;-62
2023/03/14 03:08:39;;;;;;;0.70;0.70;;;12.40;99.90;;;;;;5049992;28;20566;-63
2023/03/14 03:11:07;;;;;;;0.70;0.70;;;12.40;99.90;;;;;;5049826;28;20298;-62
2023/03/14 03:13:34;;;;;;;0.73;0.73;;;12.50;99.90;;;;;;5049693;28;20212;-62
2023/03/14 03:16:01;;;;;;;0.60;0.60;;;12.50;99.90;;;;;;5048931;28;20602;-62
2023/03/14 03:18:27;;;;;;;0.73;0.73;;;12.50;99.90;;;;;;5050127;28;20203;-62
2023/03/14 03:20:56;;;;;;;0.70;0.70;;;12.50;99.90;;;;;;5050377;28;20200;-63
2023/03/14 03:23:22;;;;;;;0.68;0.68;;;12.50;99.90;;;;;;5050657;28;20206;-62
2023/03/14 03:25:50;;;;;;;0.60;0.60;;;12.50;99.90;;;;;;5049227;28;20332;-64
2023/03/14 03:28:17;;;;;;;0.82;0.82;;;12.50;99.90;;;;;;5050289;28;20292;-63
2023/03/14 03:30:45;;;;;;;0.77;0.77;;;12.50;99.90;;;;;;5049744;28;20200;-63
2023/03/14 03:33:12;;;;;;;0.70;0.70;;;12.50;99.90;;;;;;5049693;28;20227;-63
2023/03/14 03:35:47;;;;;;;0.70;0.70;;;12.50;99.90;;;;;;5048775;28;20663;-64
2023/03/14 03:38:16;;;;;;;0.75;0.75;;;12.50;99.90;;;;;;5050026;28;20209;-61
2023/03/14 03:40:43;;;;;;;0.57;0.57;;;12.50;99.90;;;;;;5051210;28;20214;-63
2023/03/14 03:43:10;;;;;;;0.60;0.60;;;12.50;99.90;;;;;;5050231;28;20657;-63
2023/03/14 03:45:36;;;;;;;0.80;0.80;;;12.50;99.90;;;;;;5049351;28;20254;-62
2023/03/14 03:48:04;;;;;;;1.00;0.90;;;12.50;99.90;;;;;;5050866;28;20546;-61
2023/03/14 03:50:30;;;;;;;0.63;0.63;;;12.50;99.90;;;;;;5051063;28;20204;-61
2023/03/14 03:52:57;;;;;;;0.70;0.70;;;12.50;99.90;;;;;;5050514;28;20220;-62
2023/03/14 03:55:27;;;;;;;0.70;0.70;;;12.50;99.90;;;;;;5053024;28;20236;-63
2023/03/14 03:57:54;;;;;;;0.60;0.60;;;12.50;99.90;;;;;;5054142;28;20647;-62
2023/03/14 04:00:21;;;;;;;0.80;0.80;;;12.50;99.90;;;;;;5053049;28;20218;-63
2023/03/14 04:02:48;;;;;;;0.80;0.80;;;12.50;99.90;;;;;;5053777;28;20206;-62
2023/03/14 04:05:15;;;;;;;0.52;0.52;;;12.50;99.90;;;;;;5052437;28;20223;-62
2023/03/14 04:07:45;;;;;;;0.90;0.90;;;12.40;99.90;;;;;;5053040;28;20208;-61
2023/03/14 04:10:12;;;;;;;0.77;0.77;;;12.50;99.90;;;;;;5053651;28;20215;-62
2023/03/14 04:12:41;;;;;;;0.80;0.80;;;12.50;99.90;;;;;;5052419;28;20224;-62
2023/03/14 04:15:09;;;;;;;0.50;0.50;;;12.40;99.90;;;;;;5052075;28;20551;-63
2023/03/14 04:17:35;;;;;;;0.70;0.70;;;12.50;99.90;;;;;;5052810;28;20218;-62
2023/03/14 04:20:03;;;;;;;0.60;0.60;;;12.50;99.90;;;;;;5052743;28;20286;-63
2023/03/14 04:22:30;;;;;;;0.90;0.60;;;12.50;99.90;;;;;;5052546;28;20207;-62
2023/03/14 04:24:57;;;;;;;0.70;0.70;;;12.50;99.90;;;;;;5052127;28;20224;-63
2023/03/14 04:27:24;;;;;;;0.80;0.80;;;12.50;99.90;;;;;;5052755;28;20693;-63
2023/03/14 04:29:52;;;;;;;0.70;0.70;;;12.40;99.90;;;;;;5053054;28;20208;-65
2023/03/14 04:32:19;;;;;;;0.75;0.75;;;12.40;99.90;;;;;;5052441;28;20694;-63
2023/03/14 04:34:45;;;;;;;0.70;0.70;;;12.50;99.90;;;;;;5058148;28;20306;-63
2023/03/14 04:37:12;;;;;;;0.82;0.80;;;12.40;99.90;;;;;;5057140;28;20215;-62
2023/03/14 04:39:39;;;;;;;0.75;0.75;;;12.40;99.90;;;;;;5052324;28;20204;-63
2023/03/14 04:42:06;;;;;;;0.70;0.70;;;12.50;99.90;;;;;;5051579;28;20216;-62
2023/03/14 04:44:33;;;;;;;0.60;0.60;;;12.40;99.90;;;;;;5051991;28;20203;-62
2023/03/14 04:47:01;;;;;;;0.70;0.70;;;12.50;99.90;;;;;;5052830;28;20663;-62
2023/03/14 04:49:28;;;;;;;0.70;0.70;;;12.50;99.90;;;;;;5053055;28;20935;-62
2023/03/14 04:51:55;;;;;;;0.70;0.70;;;12.50;99.90;;;;;;5052900;28;20235;-61
2023/03/14 04:54:21;;;;;;;0.80;0.80;;;12.50;99.90;;;;;;5050507;28;20203;-61
2023/03/14 04:56:48;;;;;;;0.60;0.60;;;12.50;99.90;;;;;;5051265;28;20208;-61
2023/03/14 04:59:15;;;;;;;0.65;0.65;;;12.50;99.90;;;;;;5049811;28;20208;-62
2023/03/14 05:01:42;;;;;;;0.60;0.60;;;12.50;99.90;;;;;;5050590;28;20214;-61
2023/03/14 05:04:10;;;;;;;0.73;0.73;;;12.50;99.90;;;;;;5049980;28;21217;-61
2023/03/14 05:06:39;;;;;;;0.55;0.55;;;12.50;99.90;;;;;;5051535;28;20238;-60
2023/03/14 05:09:06;;;;;;;0.73;0.73;;;12.40;99.90;;;;;;5053504;28;20223;-61
2023/03/14 05:11:33;;;;;;;0.82;0.82;;;12.50;99.90;;;;;;5049741;28;20204;-63
2023/03/14 05:14:00;;;;;;;0.73;0.73;;;12.40;99.90;;;;;;5050414;28;20231;-63
2023/03/14 05:16:27;;;;;;;0.73;0.73;;;12.40;99.90;;;;;;5051881;28;20235;-62
2023/03/14 05:18:53;;;;;;;0.50;0.50;;;12.40;99.90;;;;;;5052059;28;20226;-61
2023/03/14 05:21:21;;;;;;;0.67;0.67;;;12.40;99.90;;;;;;5051038;28;20583;-61
2023/03/14 05:23:48;;;;;;;0.50;0.50;;;12.40;99.90;;;;;;5042939;28;20203;-61
2023/03/14 05:26:16;;;;;;;0.57;0.50;;;12.40;99.90;;;;;;5049917;28;20699;-61
2023/03/14 05:28:43;;;;;;;0.63;0.63;;;12.50;99.90;;;;;;5056515;28;20232;-62
2023/03/14 05:31:11;;;;;;;0.52;0.52;;;12.50;99.90;;;;;;5051949;28;20294;-61
2023/03/14 05:33:38;;;;;;;0.60;0.60;;;12.50;99.90;;;;;;5054877;28;20230;-62
2023/03/14 05:36:05;;;;;;;0.60;0.60;;;12.50;99.90;;;;;;5063076;28;20231;-63
2023/03/14 05:38:34;;;;;;;0.40;0.40;;;12.50;99.90;;;;;;5067381;28;20265;-62
2023/03/14 05:41:00;;;;;;;0.70;0.70;;;12.60;99.90;;;;;;5066687;28;20208;-61
2023/03/14 05:43:27;;;;;;;0.60;0.60;;;12.60;99.90;;;;;;5066775;28;20204;-63
2023/03/14 05:45:54;;;;;;;0.40;0.40;;;12.60;99.90;;;;;;5065360;28;20287;-62
2023/03/14 05:48:21;;;;;;;0.82;0.82;;;12.60;99.90;;;;;;5068492;28;20279;-62
2023/03/14 05:50:48;;;;;;;0.60;0.60;;;12.70;99.90;;;;;;5064155;28;20298;-63
2023/03/14 05:53:15;;;;;;;0.40;0.40;;;12.70;99.90;;;;;;5070538;28;20287;-63
2023/03/14 05:55:43;;;;;;;1.17;0.70;;;12.60;99.90;;;;;;5064662;28;20250;-63
2023/03/14 05:58:10;;;;;;;0.97;0.73;;;12.70;99.90;;;;;;5066394;28;20204;-63
2023/03/14 06:00:37;;;;;;;0.47;0.47;;;12.60;99.90;;;;;;5054086;28;20211;-62
2023/03/14 06:03:04;;;;;;;0.60;0.60;;;12.60;99.90;;;;;;5051070;28;20204;-63
2023/03/14 06:05:30;;;;;;;1.10;0.75;;;12.60;99.90;;;;;;5050530;28;20224;-63
2023/03/14 06:07:57;;;;;;;0.77;0.77;;;12.60;99.90;;;;;;5051023;28;20583;-63
2023/03/14 06:10:24;;;;;;;0.52;0.52;;;12.60;99.90;;;;;;5051353;28;20204;-60
2023/03/14 06:12:52;;;;;;;0.70;0.70;;;12.60;99.90;;;;;;5051282;28;20223;-61
2023/03/14 06:15:19;;;;;;;0.47;0.47;;;12.50;99.90;;;;;;5050627;28;20227;-61
2023/03/14 06:17:46;;;;;;;0.38;0.38;;;12.50;99.90;;;;;;5051527;28;20246;-62
2023/03/14 06:20:13;;;;;;;0.60;0.60;;;12.50;99.90;;;;;;5051530;28;20871;-62
2023/03/14 06:22:41;;;;;;;0.63;0.60;;;12.50;99.90;;;;;;5051588;28;20210;-61
2023/03/14 06:25:09;;;;;;;0.40;0.40;;;12.50;99.90;;;;;;5051584;28;20736;-61
2023/03/14 06:27:36;;;;;;;0.68;0.68;;;12.50;99.90;;;;;;5054311;28;20206;-62
2023/03/14 06:30:06;;;;;;;0.50;0.50;;;12.50;99.90;;;;;;5052502;28;20216;-61
2023/03/14 06:32:32;;;;;;;0.40;0.40;;;12.60;99.90;;;;;;5051210;28;20227;-62
2023/03/14 06:35:00;;;;;;;0.57;0.57;;;12.60;99.90;;;;;;5051276;28;20254;-61
2023/03/14 06:37:27;;;;;;;0.38;0.38;;;12.60;99.90;;;;;;5051915;28;20200;-63
2023/03/14 06:39:54;;;;;;;0.40;0.40;;;12.60;99.90;;;;;;5050975;28;20203;-62
2023/03/14 06:42:21;;;;;;;0.68;0.68;;;12.60;99.90;;;;;;5050657;28;20212;-63
2023/03/14 06:44:48;;;;;;;0.30;0.30;;;12.70;99.90;;;;;;5050128;28;20227;-61
2023/03/14 06:47:16;;;;;;;0.35;0.35;;;12.70;99.90;;;;;;5049982;28;20200;-61
2023/03/14 06:49:43;;;;;;;0.43;0.43;;;12.70;99.90;;;;;;5046261;28;20302;-62
2023/03/14 06:52:10;;;;;;;0.60;0.60;;;12.80;99.90;;;;;;5050657;28;20204;-61
2023/03/14 06:54:36;;;;;;;0.50;0.50;;;12.80;99.90;;;;;;5049683;28;20227;-61
2023/03/14 06:57:03;;;;;;;0.60;0.60;;;12.80;99.90;;;;;;5048962;28;20203;-63
2023/03/14 06:59:30;;;;;;;0.30;0.30;;;12.90;99.90;;;;;;5049745;28;20238;-60
2023/03/14 07:01:57;;;;;;;0.50;0.50;;;12.80;99.90;;;;;;5050280;28;20214;-62
2023/03/14 07:04:25;;;;;;;0.47;0.47;;;12.90;99.90;;;;;;5049656;28;20219;-62
2023/03/14 07:06:52;;;;;;;0.35;0.35;;;12.90;99.90;;;;;;5049709;28;20214;-62
2023/03/14 07:09:19;;;;;;;0.23;0.23;;;13.00;99.90;;;;;;5050205;28;20298;-61
2023/03/14 07:11:46;;;;;;;0.40;0.40;;;13.10;99.90;;;;;;5050351;28;20693;-62
2023/03/14 07:14:13;;;;;;;0.70;0.47;;;13.10;99.90;;;;;;5049288;28;20273;-61
2023/03/14 07:16:39;;;;;;;0.40;0.40;;;13.10;99.90;;;;;;5050528;28;20234;-61
2023/03/14 07:19:07;;;;;;;0.53;0.50;;;13.10;99.90;;;;;;5050348;28;20239;-62
2023/03/14 07:21:35;;;;;;;0.50;0.50;;;13.20;99.90;;;;;;5050011;28;20208;-62
2023/03/14 07:24:02;;;;;;;0.30;0.30;;;13.20;99.90;;;;;;5049774;28;20602;-62
2023/03/14 07:26:29;;;;;;;0.40;0.40;;;13.20;99.90;;;;;;5050411;28;20219;-61
2023/03/14 07:28:56;;;;;;;0.30;0.30;;;13.20;99.90;;;;;;5050334;28;20204;-62
2023/03/14 07:31:23;;;;;;;0.32;0.32;;;13.20;99.90;;;;;;5053816;28;20240;-62
2023/03/14 07:33:50;;;;;;;0.50;0.50;;;13.30;99.90;;;;;;5053456;28;20313;-62
2023/03/14 07:36:16;;;;;;;0.30;0.30;;;13.30;99.90;;;;;;5054192;28;20306;-61
2023/03/14 07:38:45;;;;;;;0.40;0.40;;;13.40;99.90;;;;;;5055776;28;20560;-61
2023/03/14 07:41:11;;;;;;;0.30;0.30;;;13.50;99.90;;;;;;5055376;28;20203;-61
2023/03/14 07:43:38;;;;;;;0.30;0.30;;;13.60;99.90;;;;;;5054254;28;20570;-61
2023/03/14 07:46:06;;;;;;;0.52;0.52;;;13.60;99.90;;;;;;5053313;28;20870;-62
2023/03/14 07:48:32;;;;;;;0.50;0.50;;;13.50;99.90;;;;;;5054061;28;20210;-63
2023/03/14 07:50:59;;;;;;;0.30;0.30;;;13.50;99.90;;;;;;5054012;28;20204;-63
2023/03/14 07:53:26;;;;;;;0.50;0.50;;;13.60;99.90;;;;;;5053977;28;20246;-61
2023/03/14 07:55:55;;;;;;;0.50;0.50;;;13.60;99.90;;;;;;5052956;28;20714;-61
2023/03/14 07:58:22;;;;;;;0.40;0.40;;;13.60;99.90;;;;;;5053691;28;20693;-61
2023/03/14 08:00:49;;;;;;;0.40;0.40;;;13.60;99.90;;;;;;5053701;28;20581;-61
2023/03/14 08:03:17;;;;;;;0.47;0.28;;;13.60;99.90;;;;;;5053001;28;20204;-63
2023/03/14 08:05:44;;;;;;;0.50;0.43;;;13.70;99.90;;;;;;5053185;28;20227;-62
2023/03/14 08:08:11;;;;;;;0.30;0.30;;;13.60;99.90;;;;;;5053780;28;20253;-62
2023/03/14 08:10:38;;;;;;;0.47;0.47;;;13.70;99.90;;;;;;5053810;28;20200;-61
2023/03/14 08:13:06;;;;;;;0.45;0.45;;;13.70;99.90;;;;;;5053999;28;20219;-61
2023/03/14 08:15:33;;;;;;;0.40;0.40;;;13.70;99.90;;;;;;5054295;28;20228;-60
2023/03/14 08:18:00;;;;;;;0.30;0.30;;;13.70;99.90;;;;;;5054835;28;20207;-60
2023/03/14 08:20:28;;;;;;;0.40;0.40;;;13.80;99.90;;;;;;5053499;28;20211;-61
2023/03/14 08:22:57;;;;;;;0.40;0.40;;;13.80;99.90;;;;;;5052893;28;20926;-62
2023/03/14 08:25:24;;;;;;;0.40;0.40;;;13.80;99.90;;;;;;5052952;28;20228;-62
2023/03/14 08:27:51;;;;;;;0.55;0.55;;;13.80;99.90;;;;;;5053501;28;20210;-62
2023/03/14 08:30:21;;;;;;;0.45;0.45;;;13.80;99.90;;;;;;5053542;28;20216;-62
2023/03/14 08:32:47;;;;;;;0.20;0.20;;;13.90;99.90;;;;;;5052913;28;20593;-62
2023/03/14 08:35:15;;;;;;;0.47;0.35;;;13.90;99.90;;;;;;5052947;28;20231;-62
2023/03/14 08:37:42;;;;;;;0.30;0.30;;;13.90;99.90;;;;;;5053489;28;20924;-63
2023/03/14 08:40:10;;;;;;;0.22;0.20;;;13.90;99.90;;;;;;5053037;28;20215;-62
2023/03/14 08:42:37;;;;;;;0.45;0.45;;;13.80;99.90;;;;;;5052101;28;20208;-62
2023/03/14 08:45:04;;;;;;;0.35;0.35;;;13.80;99.90;;;;;;5052504;28;20224;-62
2023/03/14 08:47:32;;;;;;;0.32;0.30;;;13.80;99.90;;;;;;5053352;28;20697;-60
2023/03/14 08:49:59;;;;;;;0.28;0.28;;;13.70;99.90;;;;;;5053184;28;20204;-62
2023/03/14 08:52:26;;;;;;;0.40;0.30;;;13.80;99.90;;;;;;5052819;28;20204;-61
2023/03/14 08:54:53;;;;;;;0.17;0.17;;;14.00;99.90;;;;;;5051868;28;20667;-60
2023/03/14 08:57:21;;;;;;;0.40;0.40;;;14.00;99.90;;;;;;5052652;28;20748;-61
2023/03/14 08:59:48;;;;;;;0.20;0.20;;;14.00;99.90;;;;;;5052796;28;20585;-63
2023/03/14 09:02:15;;;;;;;0.10;0.10;;;14.00;99.90;;;;;;5052732;28;20212;-63
2023/03/14 09:04:43;;;;;;;0.20;0.20;;;14.10;99.90;;;;;;5051815;28;20706;-60
2023/03/14 09:07:10;;;;;;;0.20;0.20;;;14.10;99.90;;;;;;5052338;28;20204;-63
2023/03/14 09:09:37;;;;;;;0.13;0.13;;;14.20;99.90;;;;;;5052510;28;20210;-61
2023/03/14 09:12:05;;;;;;;0.20;0.20;;;14.30;99.90;;;;;;5052358;28;20211;-62
2023/03/14 09:14:32;;;;;;;0.30;0.30;;;14.40;99.90;;;;;;5052260;28;20219;-61
2023/03/14 09:16:59;;;;;;;0.28;0.28;;;14.50;99.90;;;;;;5052714;28;20223;-63
2023/03/14 09:19:26;;;;;;;0.25;0.20;;;14.50;99.90;;;;;;5052570;28;20215;-62
2023/03/14 09:21:55;;;;;;;0.30;0.30;;;14.40;99.90;;;;;;5052050;28;20694;-62
2023/03/14 09:24:22;;;;;;;0.25;0.20;;;14.30;99.90;;;;;;5051602;28;20591;-62
2023/03/14 09:26:49;;;;;;;0.32;0.32;;;14.30;99.90;;;;;;5052437;28;20315;-62
2023/03/14 09:29:15;;;;;;;0.95;0.60;;;14.30;99.90;;;;;;5052078;28;20214;-62
2023/03/14 09:31:42;;;;;;;0.22;0.22;;;14.30;99.90;;;;;;5051760;28;20211;-62
2023/03/14 09:34:09;;;;;;;0.25;0.25;;;14.30;99.90;;;;;;5051244;28;20729;-62
2023/03/14 09:36:37;;;;;;;0.15;0.15;;;14.40;99.90;;;;;;5052186;28;20231;-60
2023/03/14 09:39:06;;;;;;;0.20;0.20;;;14.40;99.90;;;;;;5051912;28;20214;-62
2023/03/14 09:41:37;;;;;;;0.20;0.20;;;14.30;99.90;;;;;;5053667;28;20208;-61
2023/03/14 09:44:09;;;;;;;0.10;0.10;;;14.30;99.90;;;;;;5052070;28;20181;-61
2023/03/14 09:46:38;;;;;;;0.30;0.30;;;14.30;99.90;;;;;;5052002;28;20570;-63
2023/03/14 09:49:12;;;;;;;0.15;0.15;;;14.20;99.90;;;;;;5052048;28;20208;-63
2023/03/14 09:51:39;;;;;;;0.30;0.30;;;14.10;99.90;;;;;;5051652;28;20338;-63
2023/03/14 09:54:31;;;;;;;0.20;0.20;;;14.00;99.90;;;;;;5050602;28;20571;-62
2023/03/14 09:56:57;;;;;;;0.20;0.20;;;13.90;99.90;;;;;;5051773;28;20667;-62
2023/03/14 09:59:26;;;;;;;0.10;0.10;;;13.80;99.90;;;;;;5051526;28;20200;-62
2023/03/14 10:01:53;;;;;;;0.98;0.20;;;13.70;99.90;;;;;;5051201;28;20208;-63
2023/03/14 10:04:23;;;;;;;0.30;0.30;;;13.60;99.90;;;;;;5050635;28;20208;-61
2023/03/14 10:06:50;;;;;;;0.30;0.30;;;13.60;99.90;;;;;;5052276;28;20199;-61
2023/03/14 10:09:24;;;;;;;0.13;0.13;;;13.50;99.90;;;;;;5051747;28;20207;-62
2023/03/14 10:11:54;;;;;;;0.40;0.40;;;13.40;99.90;;;;;;5051355;28;20265;-61
2023/03/14 10:14:31;;;;;;;0.75;0.20;;;13.40;99.90;;;;;;5050166;28;20721;-62
2023/03/14 10:17:07;;;;;;;0.17;0.17;;;13.40;99.90;;;;;;5051350;28;20188;-63
2023/03/14 10:19:35;;;;;;;0.20;0.20;;;13.30;99.90;;;;;;5051182;28;20694;-63
2023/03/14 10:22:03;;;;;;;0.40;0.40;;;13.30;99.90;;;;;;5050686;28;20552;-63
2023/03/14 10:24:32;;;;;;;0.30;0.30;;;13.30;99.90;;;;;;5050527;28;20208;-61
2023/03/14 10:27:02;;;;;;;0.30;0.30;;;13.20;99.90;;;;;;5051503;28;20218;-61
2023/03/14 10:29:30;;;;;;;0.20;0.20;;;13.20;99.90;;;;;;5051908;28;20273;-61
2023/03/14 10:32:00;;;;;;;0.20;0.20;;;13.00;99.90;;;;;;5051290;28;20208;-61
2023/03/14 10:34:30;;;;;;;0.32;0.32;;;13.00;99.90;;;;;;5051608;28;20269;-61
2023/03/14 10:36:59;;;;;;;0.20;0.20;;;12.90;99.90;;;;;;5052088;28;20223;-63
2023/03/14 10:39:38;;;;;;;0.20;0.20;;;13.00;99.90;;;;;;5051256;28;20208;-62
2023/03/14 10:42:12;;;;;;;0.20;0.20;;;13.00;99.90;;;;;;5051303;28;20199;-61
2023/03/14 10:44:40;;;;;;;0.30;0.30;;;13.00;99.90;;;;;;5049982;28;20245;-62
2023/03/14 10:47:07;;;;;;;0.40;0.40;;;13.00;99.90;;;;;;5050860;28;20194;-62
2023/03/14 10:49:36;;;;;;;0.20;0.20;;;13.00;99.90;;;;;;5051980;28;20203;-61
2023/03/14 10:52:15;;;;;;;0.38;0.38;;;13.20;99.90;;;;;;5051103;28;20218;-62
2023/03/14 10:54:48;;;;;;;0.30;0.30;;;13.10;99.90;;;;;;5050926;28;20227;-62
2023/03/14 10:57:15;;;;;;;0.30;0.30;;;13.10;99.90;;;;;;5051731;28;20211;-63
2023/03/14 10:59:43;;;;;;;0.17;0.17;;;13.10;99.90;;;;;;5051416;28;20200;-61
2023/03/14 11:02:26;;;;;;;0.20;0.15;;;13.00;99.90;;;;;;5051171;28;20206;-63
2023/03/14 11:05:04;;;;;;;0.10;0.10;;;12.90;99.90;;;;;;5052220;28;20251;-61
2023/03/14 11:07:37;;;;;;;0.20;0.20;;;12.80;99.90;;;;;;5055123;28;20211;-62
2023/03/14 11:10:15;;;;;;;0.20;0.20;;;12.80;99.90;;;;;;5054857;28;20630;-63
2023/03/14 11:12:51;;;;;;;0.35;0.35;;;12.60;99.90;;;;;;5054880;28;20211;-62
2023/03/14 11:15:23;;;;;;;0.22;0.22;;;12.40;99.90;;;;;;5054248;28;20698;-62
2023/03/14 11:18:06;;;;;;;0.40;0.40;;;12.30;99.90;;;;;;5055113;28;20198;-61
2023/03/14 11:20:39;;;;;;;0.30;0.30;;;12.20;99.90;;;;;;5054973;28;20568;-61
2023/03/14 11:23:13;;;;;;;0.45;0.45;;;12.10;99.90;;;;;;5054792;28;20203;-61
2023/03/14 11:25:49;;;;;;;0.30;0.30;;;12.10;99.90;;;;;;5054985;28;20219;-61
2023/03/14 11:28:22;;;;;;;0.10;0.10;;;12.10;99.90;;;;;;5055434;28;20684;-61
2023/03/14 11:30:52;;;;;;;0.28;0.28;;;12.10;99.90;;;;;;5055817;28;20204;-62
2023/03/14 11:33:26;;;;;;;0.13;0.13;;;12.20;99.90;;;;;;5054874;28;20208;-60
2023/03/14 11:35:59;;;;;;;0.50;0.50;;;12.20;99.90;;;;;;5054525;28;20285;-61
2023/03/14 11:38:33;;;;;;;0.65;0.65;;;12.20;99.90;;;;;;5054260;28;20638;-63
2023/03/14 11:41:02;;;;;;;0.35;0.35;;;12.10;99.90;;;;;;5053902;28;20211;-63
2023/03/14 11:43:34;;;;;;;0.50;0.50;;;12.00;99.90;;;;;;5053423;28;20207;-62
2023/03/14 11:46:06;;;;;;;0.22;0.22;;;12.00;99.90;;;;;;5052306;28;20231;-62
2023/03/14 11:48:40;;;;;;;0.50;0.50;;;11.80;99.90;;;;;;5053482;28;20188;-62
2023/03/14 11:51:14;;;;;;;0.30;0.30;;;11.90;99.90;;;;;;5054241;28;20539;-60
2023/03/14 11:53:49;;;;;;;0.55;0.55;;;11.80;99.90;;;;;;5053985;28;20214;-62
2023/03/14 11:56:25;;;;;;;0.75;0.75;;;12.00;99.90;;;;;;5053862;28;20223;-61
2023/03/14 11:58:59;;;;;;;0.28;0.28;;;12.10;99.90;;;;;;5054453;28;20279;-61
2023/03/14 12:01:37;;;;;;;0.32;0.32;;;12.20;99.90;;;;;;5053669;28;20234;-61
2023/03/14 12:04:10;;;;;;;0.28;0.28;;;12.20;99.90;;;;;;5053394;28;20192;-61
2023/03/14 12:06:46;;;;;;;0.70;0.70;;;12.00;99.90;;;;;;5053940;28;21003;-61
2023/03/14 12:09:14;;;;;;;0.50;0.50;;;11.90;99.90;;;;;;5053799;28;20649;-63
2023/03/14 12:11:48;;;;;;;0.55;0.55;;;11.70;99.90;;;;;;5054503;28;20214;-63
2023/03/14 12:14:23;;;;;;;0.40;0.40;;;11.80;99.90;;;;;;5066250;28;20887;-62
2023/03/14 12:16:56;;;;;;;0.47;0.47;;;11.80;99.90;;;;;;5068964;28;20304;-62
2023/03/14 12:19:40;;;;;;;0.63;0.63;;;11.90;99.90;;;;;;5069186;28;20210;-62
2023/03/14 12:22:24;;;;;;;0.80;0.80;;;11.80;99.90;;;;;;5066712;28;20274;-62
2023/03/14 12:24:54;;;;;;;0.40;0.40;;;11.90;99.90;;;;;;5056688;28;20223;-62
2023/03/14 12:27:46;;;;;;;0.57;0.57;;;11.80;99.90;;;;;;5054206;28;20214;-62
2023/03/14 12:30:29;;;;;;;0.50;0.50;;;11.80;99.90;;;;;;5053051;28;20244;-62
2023/03/14 12:33:13;;;;;;;0.40;0.40;;;11.80;99.90;;;;;;5053933;28;20188;-61
2023/03/14 12:35:41;;;;;;;0.80;0.40;;;11.70;99.90;;;;;;5052926;28;20236;-62
2023/03/14 12:38:12;;;;;;;0.57;0.57;;;11.70;99.90;;;;;;5053229;28;20208;-63
2023/03/14 12:40:48;;;;;;;0.55;0.55;;;11.70;99.90;;;;;;5053681;28;20299;-61
2023/03/14 12:43:26;;;;;;;0.50;0.50;;;11.60;99.90;;;;;;5053560;28;20291;-61
2023/03/14 12:46:15;;;;;;;0.73;0.73;;;11.60;99.90;;;;;;5052813;28;20330;-61
2023/03/14 12:48:42;;;;;;;0.52;0.52;;;11.50;99.90;;;;;;5053457;28;20204;-61
2023/03/14 12:51:15;;;;;;;0.75;0.75;;;11.50;99.90;;;;;;5053431;28;20218;-62
2023/03/14 12:54:13;;;;;;;0.70;0.70;;;11.40;99.90;;;;;;5053199;28;20192;-62
2023/03/14 12:56:49;;;;;;;0.63;0.63;;;11.30;99.90;;;;;;5053231;28;20597;-62